Time;durP1;ratioP1;P1;durP2;ratioP2;P2;SDS_P1;SDS_P2;PMS_P1;PMS_P2;Temp;Humidity;BMP_temperature;BMP_pressure;BME280_temperature;BME280_humidity;BME280_pressure;Samples;Min_cycle;Max_cycle;Signal;HPM_P1;HPM_P2
2022/06/30 00:00:14;;;;;;;;;1.33;1.33;;;;;26.48;49.11;98192.25;4939620;28;102405;-61
2022/06/30 00:02:41;;;;;;;;;1.33;1.00;;;;;26.49;49.04;98191.13;4919716;28;104193;-61
2022/06/30 00:05:08;;;;;;;;;1.00;1.00;;;;;26.47;49.12;98191.47;4919426;28;102434;-61
2022/06/30 00:07:35;;;;;;;;;2.00;2.00;;;;;26.46;49.05;98195.38;4916949;28;102247;-61
2022/06/30 00:10:03;;;;;;;;;0.33;0.33;;;;;26.46;49.11;98192.59;4931795;28;102369;-61
2022/06/30 00:12:30;;;;;;;;;1.00;1.00;;;;;26.45;49.10;98182.63;4923907;28;104088;-61
2022/06/30 00:14:58;;;;;;;;;0.00;0.00;;;;;26.46;49.18;98183.47;4942739;28;102240;-61
2022/06/30 00:17:25;;;;;;;;;2.00;2.00;;;;;26.46;49.00;98184.28;4941959;28;102515;-62
2022/06/30 00:19:52;;;;;;;;;2.00;2.00;;;;;26.45;49.12;98177.09;4946276;28;102608;-61
2022/06/30 00:22:19;;;;;;;;;1.00;1.00;;;;;26.45;49.36;98171.53;4939896;28;103578;-61
2022/06/30 00:24:47;;;;;;;;;1.00;1.00;;;;;26.45;49.20;98171.53;4937976;28;102428;-61
2022/06/30 00:27:14;;;;;;;;;1.00;1.00;;;;;26.45;49.25;98167.94;4936013;28;102326;-61
2022/06/30 00:29:41;;;;;;;;;1.00;1.00;;;;;26.46;49.19;98172.38;4935998;28;102571;-61
2022/06/30 00:32:09;;;;;;;;;1.33;1.33;;;;;26.45;49.18;98173.50;4923882;28;104197;-61
2022/06/30 00:34:36;;;;;;;;;1.00;1.00;;;;;26.44;49.22;98172.66;4936017;28;102172;-61
2022/06/30 00:37:04;;;;;;;;;1.00;1.00;;;;;26.44;49.04;98166.31;4921041;28;103975;-61
2022/06/30 00:39:31;;;;;;;;;2.33;1.33;;;;;26.43;49.13;98168.25;4941795;28;102472;-61
2022/06/30 00:41:59;;;;;;;;;1.00;1.00;;;;;26.43;49.23;98173.00;4931117;28;104309;-61
2022/06/30 00:44:26;;;;;;;;;0.33;0.33;;;;;26.42;49.30;98174.94;4910930;28;102446;-61
2022/06/30 00:46:53;;;;;;;;;0.00;0.00;;;;;26.42;49.07;98171.34;4936908;28;102302;-61
2022/06/30 00:49:20;;;;;;;;;0.33;0.33;;;;;26.41;49.09;98156.66;4969239;28;102588;-61
2022/06/30 00:51:48;;;;;;;;;0.00;0.00;;;;;26.42;49.28;98155.53;4926690;28;103808;-61
2022/06/30 00:54:15;;;;;;;;;1.00;1.00;;;;;26.42;49.19;98155.53;4936847;28;101986;-61
2022/06/30 00:56:45;;;;;;;;;0.33;0.33;;;;;26.42;49.24;98152.78;4940882;28;105173;-61
2022/06/30 00:59:13;;;;;;;;;2.00;2.00;;;;;26.42;49.15;98151.94;4934272;28;102479;-61
2022/06/30 01:01:42;;;;;;;;;1.67;1.67;;;;;26.41;49.24;98142.81;4917946;28;104360;-61
2022/06/30 01:04:09;;;;;;;;;2.00;2.00;;;;;26.41;49.22;98148.34;4886679;28;102313;-61
2022/06/30 01:06:37;;;;;;;;;0.67;0.67;;;;;26.41;49.31;98151.13;4913668;28;103211;-61
2022/06/30 01:09:04;;;;;;;;;2.00;1.00;;;;;26.40;49.08;98146.72;4905995;28;102510;-61
2022/06/30 01:14:18;;;;;;;;;1.67;1.67;;;;;26.39;49.21;98144.25;4908849;28;102451;-61
2022/06/30 01:16:45;;;;;;;;;2.00;2.00;;;;;26.39;49.33;98149.78;4918216;28;102447;-62
2022/06/30 01:19:43;;;;;;;;;1.00;1.00;;;;;26.39;49.18;98155.34;4935224;28;103974;-62
2022/06/30 01:22:28;;;;;;;;;1.33;1.33;;;;;26.39;49.18;98149.78;4916837;28;107114;-61
2022/06/30 01:24:55;;;;;;;;;2.00;2.00;;;;;26.37;49.27;98141.81;4943798;28;102348;-62
2022/06/30 01:27:22;;;;;;;;;1.00;1.00;;;;;26.38;49.24;98149.00;4928098;28;102487;-62
2022/06/30 01:29:50;;;;;;;;;1.00;1.00;;;;;26.38;49.31;98137.91;4946738;28;102194;-62
2022/06/30 01:32:18;;;;;;;;;1.67;1.67;;;;;26.39;49.26;98142.28;4938124;28;108846;-61
2022/06/30 01:34:45;;;;;;;;;2.00;2.00;;;;;26.37;49.44;98139.03;4924866;28;103050;-62
2022/06/30 01:37:13;;;;;;;;;1.33;1.33;;;;;26.38;49.42;98148.16;4932490;28;102136;-62
2022/06/30 01:39:41;;;;;;;;;1.00;1.00;;;;;26.37;49.15;98144.56;4933464;28;102953;-62
2022/06/30 01:42:08;;;;;;;;;1.33;0.67;;;;;26.37;49.34;98144.56;4934228;28;104073;-62
2022/06/30 01:44:36;;;;;;;;;1.00;1.00;;;;;26.36;49.25;98140.16;4969245;28;104160;-62
2022/06/30 01:47:04;;;;;;;;;1.00;1.00;;;;;26.37;49.24;98135.44;4933403;28;102173;-62
2022/06/30 01:49:31;;;;;;;;;1.67;1.67;;;;;26.36;49.20;98134.63;4933027;28;102270;-62
2022/06/30 01:51:58;;;;;;;;;2.00;1.00;;;;;26.36;49.40;98133.78;4937722;28;104504;-61
2022/06/30 01:54:26;;;;;;;;;2.00;1.75;;;;;26.36;49.34;98133.78;4941902;28;102145;-62
2022/06/30 01:56:53;;;;;;;;;2.00;2.00;;;;;26.35;49.32;98130.19;4930093;28;102179;-61
2022/06/30 01:59:20;;;;;;;;;1.00;1.00;;;;;26.35;49.37;98129.38;4941181;28;102091;-62
2022/06/30 02:01:47;;;;;;;;;1.00;1.00;;;;;26.36;49.29;98131.03;4942267;28;108873;-61
2022/06/30 02:07:00;;;;;;;;;1.33;1.33;;;;;26.34;49.25;98131.34;4937251;28;102273;-62
2022/06/30 02:09:27;;;;;;;;;2.00;2.00;;;;;26.35;49.32;98137.69;4944201;28;102811;-62
2022/06/30 02:12:45;;;;;;;;;1.00;1.00;;;;;26.34;49.44;98125.00;4931800;28;104197;-62
2022/06/30 02:14:42;;;;;;;;;2.00;2.00;;;;;26.35;49.36;98134.91;4937719;28;102342;-62
2022/06/30 02:17:09;;;;;;;;;1.00;1.00;;;;;26.34;49.34;98123.03;4936830;28;102176;-61
2022/06/30 02:19:36;;;;;;;;;2.00;1.00;;;;;26.33;49.38;98126.94;4946119;28;102109;-61
2022/06/30 02:22:03;;;;;;;;;2.00;2.00;;;;;26.32;49.34;98114.19;4942898;28;104071;-62
2022/06/30 02:24:30;;;;;;;;;2.33;2.33;;;;;26.31;49.42;98120.88;4938796;28;102263;-61
2022/06/30 02:26:58;;;;;;;;;2.00;2.00;;;;;26.32;49.35;98130.84;4941104;28;104318;-61
2022/06/30 02:29:25;;;;;;;;;1.00;1.00;;;;;26.31;49.43;98131.97;4934353;28;102329;-61
2022/06/30 02:31:52;;;;;;;;;2.00;2.00;;;;;26.32;49.43;98136.38;4931330;28;104228;-61
2022/06/30 02:34:20;;;;;;;;;1.00;1.00;;;;;26.32;49.35;98128.06;4942853;28;102424;-61
2022/06/30 02:36:47;;;;;;;;;1.67;1.67;;;;;26.32;49.36;98132.78;4932962;28;103420;-61
2022/06/30 02:39:15;;;;;;;;;2.33;2.33;;;;;26.31;49.39;98126.41;4946551;28;102150;-62
2022/06/30 02:41:42;;;;;;;;;3.00;3.00;;;;;26.31;49.45;98120.88;4940663;28;104217;-61
2022/06/30 02:44:09;;;;;;;;;3.00;2.00;;;;;26.31;49.40;98120.88;4945517;28;102840;-61
2022/06/30 02:46:36;;;;;;;;;3.00;2.00;;;;;26.28;49.38;98115.97;4941455;28;102324;-61
2022/06/30 02:49:04;;;;;;;;;2.00;2.00;;;;;26.30;49.35;98108.13;4938134;28;103266;-61
2022/06/30 02:51:31;;;;;;;;;2.67;1.33;;;;;26.29;49.39;98109.31;4939556;28;104246;-61
2022/06/30 02:53:58;;;;;;;;;2.00;2.00;;;;;26.28;49.42;98110.44;4938933;28;102274;-61
2022/06/30 02:56:25;;;;;;;;;2.67;2.67;;;;;26.28;49.40;98113.19;4944165;28;102036;-61
2022/06/30 02:58:53;;;;;;;;;2.00;2.00;;;;;26.28;49.44;98115.97;4942557;28;103895;-61
2022/06/30 03:01:20;;;;;;;;;2.00;2.00;;;;;26.27;49.41;98119.03;4940388;28;104269;-62
2022/06/30 03:03:47;;;;;;;;;2.00;2.00;;;;;26.27;49.50;98119.88;4940309;28;103154;-62
2022/06/30 03:06:14;;;;;;;;;2.00;1.67;;;;;26.28;49.66;98129.81;4939123;28;102469;-61
2022/06/30 03:08:41;;;;;;;;;2.00;1.00;;;;;26.27;49.49;98125.41;4942062;28;102368;-61
2022/06/30 03:11:08;;;;;;;;;3.00;3.00;;;;;26.28;49.49;98123.47;4943258;28;104218;-61
2022/06/30 03:13:37;;;;;;;;;1.00;1.00;;;;;26.27;49.42;98128.19;4940333;28;102689;-61
2022/06/30 03:16:05;;;;;;;;;1.00;1.00;;;;;26.26;49.43;98134.84;4931307;28;102242;-61
2022/06/30 03:18:32;;;;;;;;;2.25;2.00;;;;;26.27;49.39;98133.72;4943789;28;102137;-62
2022/06/30 03:20:59;;;;;;;;;2.00;2.00;;;;;26.26;49.45;98132.09;4930452;28;104065;-61
2022/06/30 03:23:26;;;;;;;;;2.33;2.00;;;;;26.26;49.57;98134.84;4941078;28;102216;-61
2022/06/30 03:25:53;;;;;;;;;3.00;3.00;;;;;26.25;49.53;98138.78;4943884;28;102550;-61
2022/06/30 03:28:21;;;;;;;;;2.00;2.00;;;;;26.24;49.53;98137.13;4940822;28;102598;-61
2022/06/30 03:30:48;;;;;;;;;1.00;1.00;;;;;26.25;49.49;98137.97;4928991;28;104111;-62
2022/06/30 03:33:15;;;;;;;;;1.00;1.00;;;;;26.23;49.54;98146.59;4936034;28;102191;-62
2022/06/30 03:35:43;;;;;;;;;1.00;1.00;;;;;26.23;49.53;98145.75;4931992;28;102210;-62
2022/06/30 03:38:10;;;;;;;;;1.00;1.00;;;;;26.25;49.52;98147.09;4935832;28;102941;-62
2022/06/30 03:40:37;;;;;;;;;3.00;3.00;;;;;26.25;49.44;98152.66;4925589;28;104057;-62
2022/06/30 03:43:04;;;;;;;;;1.33;1.33;;;;;26.25;49.56;98162.91;4934849;28;103900;-62
2022/06/30 03:45:31;;;;;;;;;1.00;1.00;;;;;26.26;49.59;98164.53;4938430;28;103262;-61
2022/06/30 03:48:02;;;;;;;;;1.00;1.00;;;;;26.27;49.54;98177.25;4942869;28;102273;-62
2022/06/30 03:50:30;;;;;;;;;1.00;1.00;;;;;26.25;49.36;98177.59;4941130;28;104210;-61
2022/06/30 03:52:57;;;;;;;;;1.33;1.33;;;;;26.26;49.52;98189.47;4940336;28;102310;-61
2022/06/30 03:55:24;;;;;;;;;2.00;2.00;;;;;26.25;49.51;98235.81;4935929;28;102717;-61
2022/06/30 03:57:52;;;;;;;;;1.67;1.33;;;;;26.25;49.45;98227.50;4934269;28;102560;-62
2022/06/30 04:00:20;;;;;;;;;2.00;2.00;;;;;26.24;49.53;98225.00;4936097;28;104042;-62
2022/06/30 04:02:47;;;;;;;;;2.00;2.00;;;;;26.25;49.45;98216.41;4971690;28;103401;-62
2022/06/30 04:05:14;;;;;;;;;2.00;2.00;;;;;26.24;49.45;98217.53;4940894;28;102171;-62
2022/06/30 04:07:42;;;;;;;;;1.33;1.33;;;;;26.25;49.52;98233.03;4945005;28;102387;-61
2022/06/30 04:10:11;;;;;;;;;2.00;1.33;;;;;26.25;49.51;98249.66;4941284;28;104188;-62
2022/06/30 04:12:38;;;;;;;;;2.33;2.33;;;;;26.26;49.48;98250.44;4938728;28;102464;-62
2022/06/30 04:15:05;;;;;;;;;1.00;1.00;;;;;26.25;49.48;98244.13;4929054;28;102121;-62
2022/06/30 04:17:34;;;;;;;;;1.00;1.00;;;;;26.24;49.43;98231.38;4939326;28;102209;-61
2022/06/30 04:20:02;;;;;;;;;3.00;2.67;;;;;26.26;49.50;98242.97;4933894;28;104120;-62
2022/06/30 04:22:29;;;;;;;;;1.33;1.33;;;;;26.25;49.33;98241.34;4938188;28;102155;-62
2022/06/30 04:24:56;;;;;;;;;1.00;1.00;;;;;26.24;49.36;98236.94;4938868;28;102114;-62
2022/06/30 04:27:23;;;;;;;;;2.67;2.00;;;;;26.24;49.51;98231.38;4941244;28;102650;-62
2022/06/30 04:29:50;;;;;;;;;2.00;2.00;;;;;26.24;49.40;98241.66;4935071;28;112723;-62
2022/06/30 04:35:05;;;;;;;;;2.33;2.33;;;;;26.24;49.41;98230.56;4939076;28;102184;-62
2022/06/30 04:37:32;;;;;;;;;2.00;2.00;;;;;26.24;49.26;98220.28;4941235;28;102365;-62
2022/06/30 04:42:45;;;;;;;;;1.67;1.00;;;;;26.25;49.35;98218.34;4929035;28;102368;-62
2022/06/30 04:45:12;;;;;;;;;2.00;2.00;;;;;26.25;49.37;98224.72;4938629;28;102204;-61
2022/06/30 04:47:39;;;;;;;;;1.00;1.00;;;;;26.26;49.48;98219.97;4937995;28;102560;-62
2022/06/30 04:50:07;;;;;;;;;2.00;2.00;;;;;26.26;49.40;98217.19;4966697;28;104287;-62
2022/06/30 04:52:34;;;;;;;;;3.00;2.00;;;;;26.27;49.34;98224.38;4934298;28;102083;-61
2022/06/30 04:55:04;;;;;;;;;3.00;3.00;;;;;26.25;49.35;98221.13;4939425;28;103177;-62
2022/06/30 04:57:31;;;;;;;;;1.33;1.33;;;;;26.25;49.43;98224.72;4941980;28;102530;-62
2022/06/30 04:59:58;;;;;;;;;2.00;2.00;;;;;26.26;49.45;98220.78;4939722;28;103945;-61
2022/06/30 05:02:26;;;;;;;;;3.67;3.00;;;;;26.25;49.42;98224.72;4940659;28;103965;-62
2022/06/30 05:04:53;;;;;;;;;2.33;2.33;;;;;26.25;49.32;98221.94;4934845;28;102368;-62
2022/06/30 05:07:21;;;;;;;;;3.00;2.00;;;;;26.26;49.38;98225.50;4939424;28;102622;-62
2022/06/30 05:09:48;;;;;;;;;3.00;3.00;;;;;26.26;49.38;98223.56;4940478;28;104110;-62
2022/06/30 05:12:15;;;;;;;;;3.00;3.00;;;;;26.27;49.39;98229.94;4936202;28;102329;-62
2022/06/30 05:14:42;;;;;;;;;2.00;2.00;;;;;26.27;49.51;98235.47;4926013;28;102457;-61
2022/06/30 05:17:10;;;;;;;;;3.00;3.00;;;;;26.27;49.32;98230.75;4947140;28;102568;-61
2022/06/30 05:19:37;;;;;;;;;3.00;3.00;;;;;26.27;49.30;98233.53;4941015;28;104399;-62
2022/06/30 05:22:05;;;;;;;;;3.00;3.00;;;;;26.28;49.45;98226.84;4941280;28;102359;-61
2022/06/30 05:27:18;;;;;;;;;2.67;2.33;;;;;26.27;49.30;98216.88;4945478;28;102297;-61
2022/06/30 05:29:45;;;;;;;;;4.00;3.67;;;;;26.28;49.36;98221.31;4938042;28;104230;-62
2022/06/30 05:32:12;;;;;;;;;3.00;3.00;;;;;26.28;49.32;98215.75;4939547;28;102215;-62
2022/06/30 05:34:39;;;;;;;;;2.67;2.00;;;;;26.27;49.33;98222.44;4937645;28;102218;-62
2022/06/30 05:37:07;;;;;;;;;3.00;3.00;;;;;26.28;49.25;98220.47;4938366;28;102229;-62
2022/06/30 05:39:34;;;;;;;;;3.00;3.00;;;;;26.28;49.42;98220.47;4935139;28;103970;-61
2022/06/30 05:42:01;;;;;;;;;2.00;2.00;;;;;26.27;49.18;98208.56;4944470;28;102474;-61
2022/06/30 05:44:29;;;;;;;;;1.33;1.33;;;;;26.28;49.25;98215.75;4945026;28;102199;-61
2022/06/30 05:46:56;;;;;;;;;3.00;3.00;;;;;26.29;49.34;98216.59;4950580;28;102228;-61
2022/06/30 05:49:23;;;;;;;;;2.00;2.00;;;;;26.28;49.31;98204.69;4946003;28;107928;-62
2022/06/30 05:51:51;;;;;;;;;3.00;3.00;;;;;26.29;49.34;98213.81;4940965;28;102377;-62
2022/06/30 05:54:18;;;;;;;;;2.00;2.00;;;;;26.30;49.15;98213.47;4938734;28;102502;-61
2022/06/30 05:56:46;;;;;;;;;2.33;2.33;;;;;26.29;49.41;98214.63;4937907;28;102341;-61
2022/06/30 05:59:13;;;;;;;;;2.00;2.00;;;;;26.29;49.34;98211.03;4947752;28;110816;-61
2022/06/30 06:01:40;;;;;;;;;2.33;1.67;;;;;26.28;49.28;98207.44;4945063;28;102467;-62
2022/06/30 06:04:08;;;;;;;;;3.67;2.00;;;;;26.29;49.23;98211.88;4944614;28;102205;-62
2022/06/30 06:06:35;;;;;;;;;2.00;2.00;;;;;26.29;49.25;98217.41;4934070;28;102053;-62
2022/06/30 06:09:02;;;;;;;;;1.67;1.00;;;;;26.29;49.34;98224.91;4945101;28;104236;-62
2022/06/30 06:11:32;;;;;;;;;3.00;2.33;;;;;26.29;49.28;98222.94;4935817;28;103975;-61
2022/06/30 06:14:00;;;;;;;;;3.00;3.00;;;;;26.29;49.28;98209.09;4942757;28;101963;-61
2022/06/30 06:16:27;;;;;;;;;2.00;2.00;;;;;26.30;49.27;98213.47;4951482;28;103009;-62
2022/06/30 06:18:54;;;;;;;;;3.00;3.00;;;;;26.30;49.24;98219.03;4943778;28;108712;-62
2022/06/30 06:21:21;;;;;;;;;3.67;2.67;;;;;26.31;49.37;98220.66;4941019;28;102450;-61
2022/06/30 06:23:49;;;;;;;;;1.00;1.00;;;;;26.31;49.19;98226.22;4941191;28;103164;-61
2022/06/30 06:26:16;;;;;;;;;3.00;3.00;;;;;26.31;49.23;98217.06;4945907;28;102382;-62
2022/06/30 06:31:48;;;;;;;;;3.00;3.00;;;;;26.32;49.21;98227.03;4874575;28;102273;-62
2022/06/30 06:34:15;;;;;;;;;2.00;2.00;;;;;26.32;49.27;98221.50;4881708;28;102555;-62
2022/06/30 06:36:43;;;;;;;;;2.33;2.33;;;;;26.30;49.25;98223.78;4906684;28;102176;-61
2022/06/30 06:39:10;;;;;;;;;3.00;2.00;;;;;26.31;49.28;98231.75;4947449;28;104154;-61
2022/06/30 06:41:37;;;;;;;;;3.67;3.67;;;;;26.31;49.28;98229.00;4938591;28;102314;-61
2022/06/30 06:44:05;;;;;;;;;3.00;2.00;;;;;26.32;49.25;98224.28;4969240;28;108856;-62
2022/06/30 06:46:32;;;;;;;;;1.00;1.00;;;;;26.32;49.08;98233.41;4932798;28;102542;-61
2022/06/30 06:49:03;;;;;;;;;2.67;2.67;;;;;26.33;49.19;98231.47;4942987;28;104089;-62
2022/06/30 06:51:30;;;;;;;;;2.33;2.33;;;;;26.33;49.19;98223.16;4934153;28;104868;-61
2022/06/30 06:53:57;;;;;;;;;3.00;2.67;;;;;26.33;49.22;98229.50;4941377;28;102644;-62
2022/06/30 06:56:24;;;;;;;;;3.00;2.67;;;;;26.34;49.14;98233.09;4932783;28;102490;-62
2022/06/30 06:58:57;;;;;;;;;2.00;2.00;;;;;26.35;49.18;98226.41;4943214;28;109106;-62
2022/06/30 07:01:24;;;;;;;;;2.00;2.00;;;;;26.34;49.10;98233.09;4934955;28;102523;-61
2022/06/30 07:03:52;;;;;;;;;3.00;2.67;;;;;26.34;49.08;98227.56;4944838;28;102233;-61
2022/06/30 07:06:19;;;;;;;;;3.00;3.00;;;;;26.34;49.18;98227.56;4941944;28;102141;-61
2022/06/30 07:08:46;;;;;;;;;3.00;2.00;;;;;26.33;49.15;98223.97;4937734;28;104300;-62
2022/06/30 07:11:13;;;;;;;;;2.00;1.00;;;;;26.33;49.10;98217.59;4940259;28;103327;-61
2022/06/30 07:13:40;;;;;;;;;1.00;1.00;;;;;26.33;49.27;98229.50;4940920;28;102088;-62
2022/06/30 07:16:07;;;;;;;;;2.00;2.00;;;;;26.34;49.18;98235.88;4940123;28;102371;-62
2022/06/30 07:18:35;;;;;;;;;2.33;1.67;;;;;26.34;49.36;98233.94;4936705;28;104126;-61
2022/06/30 07:21:02;;;;;;;;;1.67;1.67;;;;;26.35;49.04;98237.50;4938079;28;102424;-62
2022/06/30 07:23:29;;;;;;;;;3.00;3.00;;;;;26.35;49.08;98220.88;4936046;28;102122;-62
2022/06/30 07:25:57;;;;;;;;;2.00;2.00;;;;;26.36;49.20;98222.50;4944555;28;103245;-62
2022/06/30 07:28:27;;;;;;;;;2.67;1.67;;;;;26.36;49.00;98223.34;4929392;28;104090;-61
2022/06/30 07:31:12;;;;;;;;;1.67;1.67;;;;;26.37;49.04;98230.53;4936769;28;103985;-62
2022/06/30 07:33:42;;;;;;;;;3.00;3.00;;;;;26.37;49.11;98224.97;4928298;28;102123;-62
2022/06/30 07:36:10;;;;;;;;;1.33;1.33;;;;;26.37;49.18;98222.22;4941450;28;102362;-61
2022/06/30 07:38:39;;;;;;;;;2.67;2.67;;;;;26.37;49.10;98218.59;4922280;28;104088;-61
2022/06/30 07:41:06;;;;;;;;;1.67;1.67;;;;;26.38;49.19;98220.25;4944541;28;102347;-62
2022/06/30 07:43:33;;;;;;;;;3.33;2.00;;;;;26.37;49.18;98224.97;4939931;28;102409;-61
2022/06/30 07:46:00;;;;;;;;;2.00;2.00;;;;;26.37;49.25;98219.44;4971347;28;102394;-62
2022/06/30 07:48:27;;;;;;;;;3.00;2.33;;;;;26.37;49.08;98219.44;4944696;28;108688;-61
2022/06/30 07:50:55;;;;;;;;;3.00;3.00;;;;;26.39;49.14;98214.38;4947678;28;102427;-61
2022/06/30 07:53:39;;;;;;;;;1.33;1.33;;;;;26.39;49.22;98214.38;4940099;28;102280;-62
2022/06/30 07:56:06;;;;;;;;;1.00;1.00;;;;;26.40;49.23;98212.44;4937634;28;102215;-61
2022/06/30 07:58:33;;;;;;;;;2.00;2.00;;;;;26.40;48.96;98213.25;4937128;28;104369;-61
2022/06/30 08:01:01;;;;;;;;;3.33;2.67;;;;;26.41;48.97;98225.16;4939592;28;102313;-62
2022/06/30 08:03:41;;;;;;;;;2.00;2.00;;;;;26.41;49.04;98214.91;4946405;28;102579;-61
2022/06/30 08:06:08;;;;;;;;;1.67;1.67;;;;;26.42;49.02;98215.72;4944055;28;102474;-62
2022/06/30 08:08:36;;;;;;;;;2.33;2.00;;;;;26.42;48.98;98224.03;4938356;28;104255;-62
2022/06/30 08:11:03;;;;;;;;;3.00;2.33;;;;;26.41;49.04;98214.91;4938669;28;102445;-61
2022/06/30 08:13:32;;;;;;;;;3.00;3.00;;;;;26.41;49.04;98226.00;4929528;28;102505;-61
2022/06/30 08:15:59;;;;;;;;;2.00;2.00;;;;;26.41;49.09;98228.75;4936474;28;102238;-61
2022/06/30 08:18:26;;;;;;;;;2.33;2.33;;;;;26.42;48.99;98222.09;4938472;28;104047;-61
2022/06/30 08:20:53;;;;;;;;;2.00;1.00;;;;;26.42;48.96;98226.81;4938167;28;102798;-62
2022/06/30 08:23:20;;;;;;;;;1.33;1.00;;;;;26.43;49.08;98217.38;4938043;28;102303;-62
2022/06/30 08:25:47;;;;;;;;;2.00;2.00;;;;;26.44;49.02;98218.97;4926791;28;102583;-61
2022/06/30 08:28:14;;;;;;;;;2.00;2.00;;;;;26.44;48.95;98219.81;4936929;28;104049;-61
2022/06/30 08:30:41;;;;;;;;;2.00;2.00;;;;;26.45;49.01;98213.13;4937745;28;102437;-62
2022/06/30 08:33:08;;;;;;;;;2.00;2.00;;;;;26.45;49.13;98215.91;4937142;28;102271;-61
2022/06/30 08:35:35;;;;;;;;;2.33;2.33;;;;;26.46;48.85;98217.56;4940351;28;102395;-61
2022/06/30 08:38:22;;;;;;;;;2.00;2.00;;;;;26.46;49.13;98220.31;4927342;28;105377;-62
2022/06/30 08:43:37;;;;;;;;;1.67;1.67;;;;;26.46;48.99;98230.59;4922332;28;102475;-62
2022/06/30 08:46:04;;;;;;;;;1.00;1.00;;;;;26.47;48.95;98223.91;4937128;28;102338;-61
2022/06/30 08:48:32;;;;;;;;;2.00;2.00;;;;;26.47;48.92;98224.75;4922296;28;104011;-61
2022/06/30 08:51:03;;;;;;;;;2.00;2.00;;;;;26.47;48.95;98224.75;4929505;28;102814;-62
2022/06/30 08:53:31;;;;;;;;;2.00;2.00;;;;;26.48;48.98;98220.00;4937502;28;102687;-61
2022/06/30 08:55:58;;;;;;;;;2.00;2.00;;;;;26.49;48.93;98221.63;4941225;28;102460;-61
2022/06/30 08:58:25;;;;;;;;;2.00;2.00;;;;;26.49;48.82;98225.25;4944242;28;103745;-61
2022/06/30 09:00:52;;;;;;;;;2.67;2.00;;;;;26.50;48.94;98223.28;4931000;28;102373;-61
2022/06/30 09:03:19;;;;;;;;;1.67;1.67;;;;;26.51;48.71;98225.75;4933665;28;102344;-61
2022/06/30 09:05:47;;;;;;;;;2.00;2.00;;;;;26.51;48.92;98225.75;4935847;28;102368;-61
2022/06/30 09:08:14;;;;;;;;;1.67;1.67;;;;;26.52;49.03;98216.28;4935031;28;104004;-62
2022/06/30 09:10:51;;;;;;;;;1.67;1.67;;;;;26.53;48.95;98229.03;4938433;28;102329;-61
2022/06/30 09:13:18;;;;;;;;;1.67;1.33;;;;;26.53;48.67;98220.69;4939014;28;104908;-61
2022/06/30 09:15:47;;;;;;;;;2.67;2.00;;;;;26.53;48.74;98217.94;4933255;28;102387;-61
2022/06/30 09:18:23;;;;;;;;;2.00;2.00;;;;;26.53;48.82;98217.94;4941013;28;104396;-61
2022/06/30 09:20:50;;;;;;;;;1.33;1.33;;;;;26.54;48.84;98225.13;4933604;28;102236;-62
2022/06/30 09:23:20;;;;;;;;;2.00;2.00;;;;;26.54;48.87;98213.19;4925269;28;102400;-62
2022/06/30 09:25:49;;;;;;;;;2.00;2.00;;;;;26.54;48.88;98208.47;4944321;28;102145;-62
2022/06/30 09:28:16;;;;;;;;;1.33;1.33;;;;;26.55;48.76;98204.56;4946131;28;103970;-62
2022/06/30 09:30:43;;;;;;;;;0.67;0.67;;;;;26.57;48.83;98209.78;4938724;28;103147;-61
2022/06/30 09:33:10;;;;;;;;;3.00;2.00;;;;;26.56;48.76;98206.22;4937680;28;102821;-62
2022/06/30 09:35:38;;;;;;;;;1.33;1.33;;;;;26.57;48.72;98196.75;4931053;28;102081;-61
2022/06/30 09:38:10;;;;;;;;;0.25;0.25;;;;;26.59;48.79;98202.81;4936505;28;104003;-61
2022/06/30 09:41:00;;;;;;;;;1.00;1.00;;;;;26.59;48.68;98200.03;4933371;28;102404;-61
2022/06/30 09:43:35;;;;;;;;;3.33;2.33;;;;;26.58;48.67;98187.31;4939817;28;102329;-61
2022/06/30 09:46:03;;;;;;;;;3.00;1.67;;;;;26.59;48.76;98194.50;4942688;28;102546;-62
2022/06/30 09:48:33;;;;;;;;;2.00;2.00;;;;;26.60;48.75;98189.75;4940819;28;109154;-62
2022/06/30 09:51:02;;;;;;;;;1.00;1.00;;;;;26.60;48.83;98192.53;4976677;28;102487;-62
2022/06/30 09:53:29;;;;;;;;;1.33;1.33;;;;;26.60;48.86;98187.00;4940635;28;102064;-61
2022/06/30 09:55:57;;;;;;;;;1.00;1.00;;;;;26.60;48.75;98190.59;4932148;28;102442;-61
2022/06/30 09:58:29;;;;;;;;;1.67;1.67;;;;;26.62;48.57;98187.47;4916814;28;103394;-61
2022/06/30 10:00:58;;;;;;;;;1.00;1.00;;;;;26.62;48.83;98185.53;4938068;28;102487;-62
2022/06/30 10:03:32;;;;;;;;;2.00;2.00;;;;;26.63;48.74;98195.50;4943259;28;102187;-61
2022/06/30 10:06:12;;;;;;;;;2.00;2.00;;;;;26.64;48.56;98183.28;4940331;28;102629;-62
2022/06/30 10:08:40;;;;;;;;;2.33;2.33;;;;;26.66;48.71;98184.91;4938655;28;112314;-62
2022/06/30 10:11:07;;;;;;;;;3.00;2.00;;;;;26.66;48.61;98182.16;4963533;28;102637;-62
2022/06/30 10:13:38;;;;;;;;;2.00;1.00;;;;;26.66;48.51;98180.16;4971061;28;102496;-62
2022/06/30 10:16:06;;;;;;;;;1.00;1.00;;;;;26.67;48.74;98181.00;4934145;28;102543;-61
2022/06/30 10:18:37;;;;;;;;;2.00;1.33;;;;;26.67;48.54;98184.59;4941827;28;104083;-61
2022/06/30 10:21:04;;;;;;;;;2.00;2.00;;;;;26.68;48.49;98185.41;4940545;28;108119;-61
2022/06/30 10:23:32;;;;;;;;;2.75;2.00;;;;;26.68;48.68;98182.63;4945593;28;102074;-62
2022/06/30 10:25:59;;;;;;;;;1.67;1.67;;;;;26.68;48.40;98174.31;4946420;28;103757;-62
2022/06/30 10:28:27;;;;;;;;;2.33;2.33;;;;;26.69;48.76;98181.50;4946284;28;104398;-62
2022/06/30 10:31:08;;;;;;;;;1.00;0.00;;;;;26.69;48.61;98179.56;4936324;28;105172;-61
2022/06/30 10:33:44;;;;;;;;;2.00;2.00;;;;;26.71;48.60;98180.03;4934146;28;102180;-61
2022/06/30 10:36:21;;;;;;;;;2.00;2.00;;;;;26.71;48.60;98165.34;4936741;28;102243;-61
2022/06/30 10:39:23;;;;;;;;;1.00;1.00;;;;;26.72;48.60;98170.59;4952865;28;104077;-61
2022/06/30 10:41:51;;;;;;;;;1.67;1.67;;;;;26.74;48.44;98167.50;4924029;28;102564;-61
2022/06/30 10:44:23;;;;;;;;;2.00;2.00;;;;;26.74;48.65;98156.41;4941482;28;102137;-62
2022/06/30 10:46:52;;;;;;;;;3.00;2.00;;;;;26.74;48.54;98153.63;4945655;28;102258;-61
2022/06/30 10:49:20;;;;;;;;;3.00;1.33;;;;;26.75;48.51;98149.75;4941627;28;104200;-61
2022/06/30 10:51:48;;;;;;;;;3.00;2.00;;;;;26.74;48.53;98148.91;4942709;28;102153;-61
2022/06/30 10:54:34;;;;;;;;;2.00;2.00;;;;;26.75;48.48;98153.31;4938274;28;102313;-62
2022/06/30 10:57:04;;;;;;;;;1.33;1.33;;;;;26.75;48.49;98147.75;4943999;28;102202;-61
2022/06/30 10:59:37;;;;;;;;;1.33;1.00;;;;;26.76;48.67;98145.81;4930407;28;108811;-61
2022/06/30 11:02:07;;;;;;;;;1.67;1.67;;;;;26.76;48.48;98143.03;4939493;28;103089;-62
2022/06/30 11:04:34;;;;;;;;;2.00;2.00;;;;;26.78;48.36;98143.53;4938848;28;103451;-61
2022/06/30 11:07:12;;;;;;;;;2.00;2.00;;;;;26.78;48.45;98133.28;4942570;28;102732;-62
2022/06/30 11:09:47;;;;;;;;;2.00;1.00;;;;;26.79;48.50;98142.41;4958168;28;108817;-61
2022/06/30 11:12:15;;;;;;;;;1.00;1.00;;;;;26.81;48.74;98140.13;4943504;28;102041;-61
2022/06/30 11:14:52;;;;;;;;;1.00;1.00;;;;;26.80;48.36;98139.31;4938371;28;102103;-61
2022/06/30 11:17:29;;;;;;;;;1.33;1.33;;;;;26.81;48.54;98134.56;4943715;28;103585;-61
2022/06/30 11:20:11;;;;;;;;;0.00;0.00;;;;;26.81;48.25;98127.06;4939000;28;104114;-61
2022/06/30 11:22:39;;;;;;;;;1.33;1.33;;;;;26.82;48.58;98133.44;4925770;28;102233;-61
2022/06/30 11:28:01;;;;;;;;;2.00;2.00;;;;;26.82;48.37;98131.50;4939087;28;102465;-61
2022/06/30 11:30:29;;;;;;;;;2.33;2.33;;;;;26.83;48.42;98126.75;4943839;28;104068;-62
2022/06/30 11:32:57;;;;;;;;;2.00;1.00;;;;;26.84;48.43;98117.28;4936441;28;104426;-61
2022/06/30 11:35:25;;;;;;;;;2.33;2.33;;;;;26.86;48.68;98112.28;4934559;28;102504;-61
2022/06/30 11:37:52;;;;;;;;;1.75;1.75;;;;;26.87;48.58;98111.16;4940796;28;102804;-61
2022/06/30 11:40:20;;;;;;;;;2.00;1.00;;;;;26.86;48.26;98115.88;4937300;28;104584;-61
2022/06/30 11:42:49;;;;;;;;;1.00;1.00;;;;;26.88;48.27;98105.25;4947947;28;102329;-61
2022/06/30 11:45:17;;;;;;;;;1.33;1.33;;;;;26.88;48.31;98108.03;4940934;28;102541;-61
2022/06/30 11:48:05;;;;;;;;;1.00;1.00;;;;;26.90;48.46;98105.78;4935077;28;102510;-62
2022/06/30 11:50:32;;;;;;;;;2.00;2.00;;;;;26.90;48.55;98103.00;4939491;28;109658;-62
2022/06/30 11:53:00;;;;;;;;;1.00;1.00;;;;;26.91;48.20;98107.41;4937768;28;103021;-61